sensor_id;sensor_type;location;lat;lon;timestamp;temperature;humidity
73586;DHT22;61865;50.232;18.614;2023-03-03T00:01:36;-2.00;99.90
73586;DHT22;61865;50.232;18.614;2023-03-03T00:04:00;-2.20;99.90
73586;DHT22;61865;50.232;18.614;2023-03-03T00:06:22;-2.30;99.90
73586;DHT22;61865;50.232;18.614;2023-03-03T00:08:44;-2.40;99.90
73586;DHT22;61865;50.232;18.614;2023-03-03T00:11:07;-2.50;99.90
73586;DHT22;61865;50.232;18.614;2023-03-03T00:13:30;-2.50;99.90
73586;DHT22;61865;50.232;18.614;2023-03-03T00:15:53;-2.60;99.90
73586;DHT22;61865;50.232;18.614;2023-03-03T00:18:24;-2.50;99.90
73586;DHT22;61865;50.232;18.614;2023-03-03T00:20:52;-2.40;99.90
73586;DHT22;61865;50.232;18.614;2023-03-03T00:23:28;-2.40;99.90
73586;DHT22;61865;50.232;18.614;2023-03-03T00:25:52;-2.50;99.90
73586;DHT22;61865;50.232;18.614;2023-03-03T00:28:21;-2.50;99.90
73586;DHT22;61865;50.232;18.614;2023-03-03T00:30:43;-2.40;99.90
73586;DHT22;61865;50.232;18.614;2023-03-03T00:33:18;-2.50;99.90
73586;DHT22;61865;50.232;18.614;2023-03-03T00:35:43;-2.70;99.90
73586;DHT22;61865;50.232;18.614;2023-03-03T00:38:13;-2.90;99.90
73586;DHT22;61865;50.232;18.614;2023-03-03T00:40:38;-2.80;99.90
73586;DHT22;61865;50.232;18.614;2023-03-03T00:43:01;-2.90;99.90
73586;DHT22;61865;50.232;18.614;2023-03-03T00:45:37;-2.90;99.90
73586;DHT22;61865;50.232;18.614;2023-03-03T00:48:10;-3.10;99.90
73586;DHT22;61865;50.232;18.614;2023-03-03T00:50:40;-3.20;99.90
73586;DHT22;61865;50.232;18.614;2023-03-03T00:53:06;-3.40;99.90
73586;DHT22;61865;50.232;18.614;2023-03-03T00:55:33;-3.60;99.90
73586;DHT22;61865;50.232;18.614;2023-03-03T00:57:56;-3.70;99.90
73586;DHT22;61865;50.232;18.614;2023-03-03T01:00:19;-3.70;99.90
73586;DHT22;61865;50.232;18.614;2023-03-03T01:02:41;-3.70;99.90
73586;DHT22;61865;50.232;18.614;2023-03-03T01:05:06;-3.70;99.90
73586;DHT22;61865;50.232;18.614;2023-03-03T01:07:31;-3.70;99.90
73586;DHT22;61865;50.232;18.614;2023-03-03T01:09:53;-3.80;99.90
73586;DHT22;61865;50.232;18.614;2023-03-03T01:12:16;-3.90;99.90
73586;DHT22;61865;50.232;18.614;2023-03-03T01:14:39;-4.00;99.90
73586;DHT22;61865;50.232;18.614;2023-03-03T01:17:01;-3.80;99.90
73586;DHT22;61865;50.232;18.614;2023-03-03T01:19:23;-3.60;99.90
73586;DHT22;61865;50.232;18.614;2023-03-03T01:21:45;-3.40;99.90
73586;DHT22;61865;50.232;18.614;2023-03-03T01:24:07;-3.30;99.90
73586;DHT22;61865;50.232;18.614;2023-03-03T01:26:30;-3.00;99.90
73586;DHT22;61865;50.232;18.614;2023-03-03T01:28:53;-3.00;99.90
73586;DHT22;61865;50.232;18.614;2023-03-03T01:31:15;-3.00;99.90
73586;DHT22;61865;50.232;18.614;2023-03-03T01:33:37;-3.10;99.90
73586;DHT22;61865;50.232;18.614;2023-03-03T01:35:59;-3.20;99.90
73586;DHT22;61865;50.232;18.614;2023-03-03T01:38:21;-3.30;99.90
73586;DHT22;61865;50.232;18.614;2023-03-03T01:40:51;-3.30;99.90
73586;DHT22;61865;50.232;18.614;2023-03-03T01:43:14;-3.40;99.90
73586;DHT22;61865;50.232;18.614;2023-03-03T01:48:23;-3.60;99.90
73586;DHT22;61865;50.232;18.614;2023-03-03T01:50:49;-3.70;99.90
73586;DHT22;61865;50.232;18.614;2023-03-03T01:53:16;-3.80;99.90
73586;DHT22;61865;50.232;18.614;2023-03-03T01:55:40;-3.90;99.90
73586;DHT22;61865;50.232;18.614;2023-03-03T01:58:04;-3.90;99.90
73586;DHT22;61865;50.232;18.614;2023-03-03T02:00:29;-3.90;99.90
73586;DHT22;61865;50.232;18.614;2023-03-03T02:02:54;-3.90;99.90
73586;DHT22;61865;50.232;18.614;2023-03-03T02:05:16;-3.90;99.90
73586;DHT22;61865;50.232;18.614;2023-03-03T02:07:38;-3.90;99.90
73586;DHT22;61865;50.232;18.614;2023-03-03T02:10:04;-4.00;99.90
73586;DHT22;61865;50.232;18.614;2023-03-03T02:12:31;-4.00;99.90
73586;DHT22;61865;50.232;18.614;2023-03-03T02:14:54;-4.10;99.90
73586;DHT22;61865;50.232;18.614;2023-03-03T02:17:16;-4.20;99.90
73586;DHT22;61865;50.232;18.614;2023-03-03T02:19:45;-4.10;99.90
73586;DHT22;61865;50.232;18.614;2023-03-03T02:22:12;-4.10;99.90
73586;DHT22;61865;50.232;18.614;2023-03-03T02:24:40;-3.90;99.90
73586;DHT22;61865;50.232;18.614;2023-03-03T02:27:05;-3.80;99.90
73586;DHT22;61865;50.232;18.614;2023-03-03T02:29:26;-3.80;99.90
73586;DHT22;61865;50.232;18.614;2023-03-03T02:31:48;-3.80;99.90
73586;DHT22;61865;50.232;18.614;2023-03-03T02:34:10;-3.80;99.90
73586;DHT22;61865;50.232;18.614;2023-03-03T02:36:34;-3.80;99.90
73586;DHT22;61865;50.232;18.614;2023-03-03T02:39:02;-3.90;99.90
73586;DHT22;61865;50.232;18.614;2023-03-03T02:41:31;-4.10;99.90
73586;DHT22;61865;50.232;18.614;2023-03-03T02:43:58;-4.30;99.90
73586;DHT22;61865;50.232;18.614;2023-03-03T02:46:20;-4.10;99.90
73586;DHT22;61865;50.232;18.614;2023-03-03T02:48:42;-3.90;99.90
73586;DHT22;61865;50.232;18.614;2023-03-03T02:51:04;-4.00;99.90
73586;DHT22;61865;50.232;18.614;2023-03-03T02:53:26;-4.20;99.90
73586;DHT22;61865;50.232;18.614;2023-03-03T02:55:48;-4.40;99.90
73586;DHT22;61865;50.232;18.614;2023-03-03T02:58:10;-4.60;99.90
73586;DHT22;61865;50.232;18.614;2023-03-03T03:00:33;-4.70;99.90
73586;DHT22;61865;50.232;18.614;2023-03-03T03:02:55;-4.90;99.90
73586;DHT22;61865;50.232;18.614;2023-03-03T03:05:18;-5.00;99.90
73586;DHT22;61865;50.232;18.614;2023-03-03T03:07:40;-4.90;99.90
73586;DHT22;61865;50.232;18.614;2023-03-03T03:10:02;-4.80;99.90
73586;DHT22;61865;50.232;18.614;2023-03-03T03:12:24;-4.70;99.90
73586;DHT22;61865;50.232;18.614;2023-03-03T03:14:46;-4.70;99.90
73586;DHT22;61865;50.232;18.614;2023-03-03T03:17:10;-4.80;99.90
73586;DHT22;61865;50.232;18.614;2023-03-03T03:19:32;-4.80;99.90
73586;DHT22;61865;50.232;18.614;2023-03-03T03:21:54;-4.90;99.90
73586;DHT22;61865;50.232;18.614;2023-03-03T03:24:16;-5.00;99.90
73586;DHT22;61865;50.232;18.614;2023-03-03T03:26:38;-4.90;99.90
73586;DHT22;61865;50.232;18.614;2023-03-03T03:29:01;-4.90;99.90
73586;DHT22;61865;50.232;18.614;2023-03-03T03:31:22;-4.80;99.90
73586;DHT22;61865;50.232;18.614;2023-03-03T03:33:46;-4.70;99.90
73586;DHT22;61865;50.232;18.614;2023-03-03T03:36:08;-4.70;99.90
73586;DHT22;61865;50.232;18.614;2023-03-03T03:38:31;-4.80;99.90
73586;DHT22;61865;50.232;18.614;2023-03-03T03:40:54;-5.10;99.90
73586;DHT22;61865;50.232;18.614;2023-03-03T03:43:16;-5.20;99.90
73586;DHT22;61865;50.232;18.614;2023-03-03T03:45:38;-5.30;99.90
73586;DHT22;61865;50.232;18.614;2023-03-03T03:48:00;-5.50;99.90
73586;DHT22;61865;50.232;18.614;2023-03-03T03:50:23;-5.60;99.90
73586;DHT22;61865;50.232;18.614;2023-03-03T03:52:45;-5.50;99.90
73586;DHT22;61865;50.232;18.614;2023-03-03T03:55:08;-5.40;99.90
73586;DHT22;61865;50.232;18.614;2023-03-03T03:57:30;-5.30;99.90
73586;DHT22;61865;50.232;18.614;2023-03-03T03:59:52;-5.20;99.90
73586;DHT22;61865;50.232;18.614;2023-03-03T04:02:14;-5.30;99.90
73586;DHT22;61865;50.232;18.614;2023-03-03T04:04:36;-5.30;99.90
73586;DHT22;61865;50.232;18.614;2023-03-03T04:06:59;-5.20;99.90
73586;DHT22;61865;50.232;18.614;2023-03-03T04:09:21;-5.10;99.90
73586;DHT22;61865;50.232;18.614;2023-03-03T04:11:43;-4.90;99.90
73586;DHT22;61865;50.232;18.614;2023-03-03T04:14:05;-4.80;99.90
73586;DHT22;61865;50.232;18.614;2023-03-03T04:16:27;-4.80;99.90
73586;DHT22;61865;50.232;18.614;2023-03-03T04:18:49;-4.80;99.90
73586;DHT22;61865;50.232;18.614;2023-03-03T04:21:11;-4.80;99.90
73586;DHT22;61865;50.232;18.614;2023-03-03T04:23:35;-5.00;99.90
73586;DHT22;61865;50.232;18.614;2023-03-03T04:25:57;-5.10;99.90
73586;DHT22;61865;50.232;18.614;2023-03-03T04:28:19;-5.10;99.90
73586;DHT22;61865;50.232;18.614;2023-03-03T04:30:41;-5.10;99.90
73586;DHT22;61865;50.232;18.614;2023-03-03T04:33:03;-5.00;99.90
73586;DHT22;61865;50.232;18.614;2023-03-03T04:35:25;-4.80;99.90
73586;DHT22;61865;50.232;18.614;2023-03-03T04:37:47;-4.70;99.90
73586;DHT22;61865;50.232;18.614;2023-03-03T04:40:11;-4.50;99.90
73586;DHT22;61865;50.232;18.614;2023-03-03T04:42:33;-4.60;99.90
73586;DHT22;61865;50.232;18.614;2023-03-03T04:44:55;-4.60;99.90
73586;DHT22;61865;50.232;18.614;2023-03-03T04:47:17;-4.60;99.90
73586;DHT22;61865;50.232;18.614;2023-03-03T04:49:39;-4.50;99.90
73586;DHT22;61865;50.232;18.614;2023-03-03T04:52:00;-4.50;99.90
73586;DHT22;61865;50.232;18.614;2023-03-03T04:54:23;-4.60;99.90
73586;DHT22;61865;50.232;18.614;2023-03-03T04:56:46;-4.60;99.90
73586;DHT22;61865;50.232;18.614;2023-03-03T04:59:08;-4.70;99.90
73586;DHT22;61865;50.232;18.614;2023-03-03T05:01:30;-4.90;99.90
73586;DHT22;61865;50.232;18.614;2023-03-03T05:03:52;-4.80;99.90
73586;DHT22;61865;50.232;18.614;2023-03-03T05:06:14;-4.80;99.90
73586;DHT22;61865;50.232;18.614;2023-03-03T05:08:38;-4.80;99.90
73586;DHT22;61865;50.232;18.614;2023-03-03T05:11:02;-4.80;99.90
73586;DHT22;61865;50.232;18.614;2023-03-03T05:13:26;-4.60;99.90
73586;DHT22;61865;50.232;18.614;2023-03-03T05:15:49;-4.30;99.90
73586;DHT22;61865;50.232;18.614;2023-03-03T05:18:11;-4.00;99.90
73586;DHT22;61865;50.232;18.614;2023-03-03T05:20:33;-3.80;99.90
73586;DHT22;61865;50.232;18.614;2023-03-03T05:22:55;-3.40;99.90
73586;DHT22;61865;50.232;18.614;2023-03-03T05:25:19;-3.20;99.90
73586;DHT22;61865;50.232;18.614;2023-03-03T05:27:41;-3.10;99.90
73586;DHT22;61865;50.232;18.614;2023-03-03T05:30:07;-3.00;99.90
73586;DHT22;61865;50.232;18.614;2023-03-03T05:32:29;-3.00;99.90
73586;DHT22;61865;50.232;18.614;2023-03-03T05:34:51;-2.90;99.90
73586;DHT22;61865;50.232;18.614;2023-03-03T05:37:13;-2.90;99.90
73586;DHT22;61865;50.232;18.614;2023-03-03T05:39:35;-3.00;99.90
73586;DHT22;61865;50.232;18.614;2023-03-03T05:41:57;-3.10;99.90
73586;DHT22;61865;50.232;18.614;2023-03-03T05:44:20;-3.10;99.90
73586;DHT22;61865;50.232;18.614;2023-03-03T05:46:43;-3.00;99.90
73586;DHT22;61865;50.232;18.614;2023-03-03T05:49:05;-2.90;99.90
73586;DHT22;61865;50.232;18.614;2023-03-03T05:51:27;-3.00;99.90
73586;DHT22;61865;50.232;18.614;2023-03-03T05:53:50;-3.00;99.90
73586;DHT22;61865;50.232;18.614;2023-03-03T05:56:12;-3.10;99.90
73586;DHT22;61865;50.232;18.614;2023-03-03T05:58:34;-3.10;99.90
73586;DHT22;61865;50.232;18.614;2023-03-03T06:00:56;-3.10;99.90
73586;DHT22;61865;50.232;18.614;2023-03-03T06:03:19;-3.00;99.90
73586;DHT22;61865;50.232;18.614;2023-03-03T06:05:41;-3.00;99.90
73586;DHT22;61865;50.232;18.614;2023-03-03T06:08:04;-3.00;99.90
73586;DHT22;61865;50.232;18.614;2023-03-03T06:10:26;-3.00;99.90
73586;DHT22;61865;50.232;18.614;2023-03-03T06:12:48;-2.80;99.90
73586;DHT22;61865;50.232;18.614;2023-03-03T06:15:10;-2.80;99.90
73586;DHT22;61865;50.232;18.614;2023-03-03T06:17:32;-2.80;99.90
73586;DHT22;61865;50.232;18.614;2023-03-03T06:19:56;-2.80;99.90
73586;DHT22;61865;50.232;18.614;2023-03-03T06:22:18;-2.90;99.90
73586;DHT22;61865;50.232;18.614;2023-03-03T06:24:40;-2.80;99.90
73586;DHT22;61865;50.232;18.614;2023-03-03T06:27:02;-2.70;99.90
73586;DHT22;61865;50.232;18.614;2023-03-03T06:29:24;-2.70;99.90
73586;DHT22;61865;50.232;18.614;2023-03-03T06:31:45;-2.80;99.90
73586;DHT22;61865;50.232;18.614;2023-03-03T06:34:07;-2.90;99.90
73586;DHT22;61865;50.232;18.614;2023-03-03T06:36:31;-2.90;99.90
73586;DHT22;61865;50.232;18.614;2023-03-03T06:38:52;-3.00;99.90
73586;DHT22;61865;50.232;18.614;2023-03-03T06:41:14;-2.90;99.90
73586;DHT22;61865;50.232;18.614;2023-03-03T06:43:37;-2.90;99.90
73586;DHT22;61865;50.232;18.614;2023-03-03T06:45:59;-2.90;99.90
73586;DHT22;61865;50.232;18.614;2023-03-03T06:48:21;-2.80;99.90
73586;DHT22;61865;50.232;18.614;2023-03-03T06:50:43;-2.90;99.90
73586;DHT22;61865;50.232;18.614;2023-03-03T06:53:11;-2.90;99.90
73586;DHT22;61865;50.232;18.614;2023-03-03T06:55:33;-2.90;99.90
73586;DHT22;61865;50.232;18.614;2023-03-03T06:57:55;-2.90;99.90
73586;DHT22;61865;50.232;18.614;2023-03-03T07:00:19;-2.80;99.90
73586;DHT22;61865;50.232;18.614;2023-03-03T07:02:44;-2.70;99.90
73586;DHT22;61865;50.232;18.614;2023-03-03T07:05:12;-2.70;99.90
73586;DHT22;61865;50.232;18.614;2023-03-03T07:07:34;-2.80;99.90
73586;DHT22;61865;50.232;18.614;2023-03-03T07:09:58;-2.70;99.90
73586;DHT22;61865;50.232;18.614;2023-03-03T07:12:22;-2.70;99.90
73586;DHT22;61865;50.232;18.614;2023-03-03T07:14:46;-2.60;99.90
73586;DHT22;61865;50.232;18.614;2023-03-03T07:17:14;-2.50;99.90
73586;DHT22;61865;50.232;18.614;2023-03-03T07:19:37;-2.40;99.90
73586;DHT22;61865;50.232;18.614;2023-03-03T07:22:12;-2.30;99.90
73586;DHT22;61865;50.232;18.614;2023-03-03T07:24:36;-2.10;99.90
73586;DHT22;61865;50.232;18.614;2023-03-03T07:27:10;-2.00;99.90
73586;DHT22;61865;50.232;18.614;2023-03-03T07:29:33;-2.10;99.90
73586;DHT22;61865;50.232;18.614;2023-03-03T07:31:56;-2.10;99.90
73586;DHT22;61865;50.232;18.614;2023-03-03T07:34:20;-2.00;99.90
73586;DHT22;61865;50.232;18.614;2023-03-03T07:36:43;-2.00;99.90
73586;DHT22;61865;50.232;18.614;2023-03-03T07:42:06;-2.00;99.90
73586;DHT22;61865;50.232;18.614;2023-03-03T07:44:34;-1.90;99.90
73586;DHT22;61865;50.232;18.614;2023-03-03T07:46:57;-1.80;99.90
73586;DHT22;61865;50.232;18.614;2023-03-03T07:49:22;-1.70;99.90
73586;DHT22;61865;50.232;18.614;2023-03-03T07:51:44;-1.40;99.90
73586;DHT22;61865;50.232;18.614;2023-03-03T07:54:21;-1.30;99.90
73586;DHT22;61865;50.232;18.614;2023-03-03T07:56:45;-1.40;99.90
73586;DHT22;61865;50.232;18.614;2023-03-03T07:59:17;-1.50;99.90
73586;DHT22;61865;50.232;18.614;2023-03-03T08:01:43;-1.60;99.90
73586;DHT22;61865;50.232;18.614;2023-03-03T08:04:15;-1.60;99.90
73586;DHT22;61865;50.232;18.614;2023-03-03T08:06:47;-1.70;99.90
73586;DHT22;61865;50.232;18.614;2023-03-03T08:09:26;-1.60;99.90
73586;DHT22;61865;50.232;18.614;2023-03-03T08:11:53;-1.60;99.90
73586;DHT22;61865;50.232;18.614;2023-03-03T08:14:23;-1.50;99.90
73586;DHT22;61865;50.232;18.614;2023-03-03T08:16:46;-1.40;99.90
73586;DHT22;61865;50.232;18.614;2023-03-03T08:19:11;-1.40;99.90
73586;DHT22;61865;50.232;18.614;2023-03-03T08:21:36;-1.50;99.90
73586;DHT22;61865;50.232;18.614;2023-03-03T08:23:58;-1.40;99.90
73586;DHT22;61865;50.232;18.614;2023-03-03T08:26:21;-1.40;99.90
73586;DHT22;61865;50.232;18.614;2023-03-03T08:28:44;-1.20;99.90
73586;DHT22;61865;50.232;18.614;2023-03-03T08:31:07;-1.00;99.90
73586;DHT22;61865;50.232;18.614;2023-03-03T08:33:30;-1.00;99.90
73586;DHT22;61865;50.232;18.614;2023-03-03T08:35:52;-1.00;99.90
73586;DHT22;61865;50.232;18.614;2023-03-03T08:38:16;-1.10;99.90
73586;DHT22;61865;50.232;18.614;2023-03-03T08:40:38;-1.10;99.90
73586;DHT22;61865;50.232;18.614;2023-03-03T08:43:00;-1.10;99.90
73586;DHT22;61865;50.232;18.614;2023-03-03T08:45:22;-1.10;99.90
73586;DHT22;61865;50.232;18.614;2023-03-03T08:47:46;-1.10;99.90
73586;DHT22;61865;50.232;18.614;2023-03-03T08:50:08;-1.00;99.90
73586;DHT22;61865;50.232;18.614;2023-03-03T08:52:30;-0.80;99.90
73586;DHT22;61865;50.232;18.614;2023-03-03T08:54:53;-0.90;99.90
73586;DHT22;61865;50.232;18.614;2023-03-03T08:57:15;-0.90;99.90
73586;DHT22;61865;50.232;18.614;2023-03-03T08:59:38;-0.90;99.90
73586;DHT22;61865;50.232;18.614;2023-03-03T09:02:00;-0.90;99.90
73586;DHT22;61865;50.232;18.614;2023-03-03T09:04:24;-0.90;99.90
73586;DHT22;61865;50.232;18.614;2023-03-03T09:06:50;-0.80;99.90
73586;DHT22;61865;50.232;18.614;2023-03-03T09:09:12;-0.70;99.90
73586;DHT22;61865;50.232;18.614;2023-03-03T09:11:34;-0.70;99.90
73586;DHT22;61865;50.232;18.614;2023-03-03T09:14:03;-0.60;99.90
73586;DHT22;61865;50.232;18.614;2023-03-03T09:16:30;-0.50;99.90
73586;DHT22;61865;50.232;18.614;2023-03-03T09:18:55;-0.50;99.90
73586;DHT22;61865;50.232;18.614;2023-03-03T09:21:21;-0.60;99.90
73586;DHT22;61865;50.232;18.614;2023-03-03T09:23:47;-0.60;99.90
73586;DHT22;61865;50.232;18.614;2023-03-03T09:26:21;-0.60;99.90
73586;DHT22;61865;50.232;18.614;2023-03-03T09:28:46;-0.50;99.90
73586;DHT22;61865;50.232;18.614;2023-03-03T09:31:21;-0.50;99.90
73586;DHT22;61865;50.232;18.614;2023-03-03T09:33:46;-0.30;99.90
73586;DHT22;61865;50.232;18.614;2023-03-03T09:36:20;-0.30;99.90
73586;DHT22;61865;50.232;18.614;2023-03-03T09:38:44;-0.30;99.90
73586;DHT22;61865;50.232;18.614;2023-03-03T09:41:32;-0.50;99.90
73586;DHT22;61865;50.232;18.614;2023-03-03T09:47:05;-0.50;99.90
73586;DHT22;61865;50.232;18.614;2023-03-03T09:49:34;-0.30;99.90
73586;DHT22;61865;50.232;18.614;2023-03-03T09:52:11;-0.30;99.90
73586;DHT22;61865;50.232;18.614;2023-03-03T09:55:01;-0.40;99.90
73586;DHT22;61865;50.232;18.614;2023-03-03T09:57:35;-0.30;99.90
73586;DHT22;61865;50.232;18.614;2023-03-03T10:00:13;-0.40;99.90
73586;DHT22;61865;50.232;18.614;2023-03-03T10:02:50;-0.30;99.90
73586;DHT22;61865;50.232;18.614;2023-03-03T10:05:20;-0.30;99.90
73586;DHT22;61865;50.232;18.614;2023-03-03T10:08:05;-0.20;99.90
73586;DHT22;61865;50.232;18.614;2023-03-03T10:10:50;-0.10;99.90
73586;DHT22;61865;50.232;18.614;2023-03-03T10:13:25;-0.20;99.90
73586;DHT22;61865;50.232;18.614;2023-03-03T10:15:59;-0.10;99.90
73586;DHT22;61865;50.232;18.614;2023-03-03T10:18:29;-0.10;99.90
73586;DHT22;61865;50.232;18.614;2023-03-03T10:21:01;-0.30;99.90
73586;DHT22;61865;50.232;18.614;2023-03-03T10:26:23;-0.20;99.90
73586;DHT22;61865;50.232;18.614;2023-03-03T10:29:10;-0.20;99.90
73586;DHT22;61865;50.232;18.614;2023-03-03T10:31:53;-0.20;99.90
73586;DHT22;61865;50.232;18.614;2023-03-03T10:34:32;-0.20;99.90
73586;DHT22;61865;50.232;18.614;2023-03-03T10:37:06;-0.10;99.90
73586;DHT22;61865;50.232;18.614;2023-03-03T10:39:48;0.00;99.90
73586;DHT22;61865;50.232;18.614;2023-03-03T10:42:26;-0.10;99.90
73586;DHT22;61865;50.232;18.614;2023-03-03T10:45:05;0.00;99.90
73586;DHT22;61865;50.232;18.614;2023-03-03T10:47:43;-0.10;99.90
73586;DHT22;61865;50.232;18.614;2023-03-03T10:50:21;-0.20;99.90
73586;DHT22;61865;50.232;18.614;2023-03-03T10:52:48;-0.20;99.90
73586;DHT22;61865;50.232;18.614;2023-03-03T10:55:41;-0.20;99.90
73586;DHT22;61865;50.232;18.614;2023-03-03T10:58:16;-0.30;99.90
73586;DHT22;61865;50.232;18.614;2023-03-03T11:00:43;-0.30;99.90
73586;DHT22;61865;50.232;18.614;2023-03-03T11:03:33;-0.30;99.90
73586;DHT22;61865;50.232;18.614;2023-03-03T11:05:59;-0.30;99.90
73586;DHT22;61865;50.232;18.614;2023-03-03T11:08:26;-0.20;99.90
73586;DHT22;61865;50.232;18.614;2023-03-03T11:10:57;-0.20;99.90
73586;DHT22;61865;50.232;18.614;2023-03-03T11:13:27;0.00;99.90
73586;DHT22;61865;50.232;18.614;2023-03-03T11:16:16;-0.10;99.90
73586;DHT22;61865;50.232;18.614;2023-03-03T11:19:04;0.00;99.90
73586;DHT22;61865;50.232;18.614;2023-03-03T11:21:31;0.00;99.90
73586;DHT22;61865;50.232;18.614;2023-03-03T11:26:56;0.00;99.90
73586;DHT22;61865;50.232;18.614;2023-03-03T11:29:47;0.00;99.90
73586;DHT22;61865;50.232;18.614;2023-03-03T11:32:23;-0.10;99.90
73586;DHT22;61865;50.232;18.614;2023-03-03T11:34:55;-0.10;99.90
73586;DHT22;61865;50.232;18.614;2023-03-03T11:37:22;-0.20;99.90
73586;DHT22;61865;50.232;18.614;2023-03-03T11:39:45;-0.10;99.90
73586;DHT22;61865;50.232;18.614;2023-03-03T11:42:14;-0.10;99.90
73586;DHT22;61865;50.232;18.614;2023-03-03T11:44:43;0.00;99.90
73586;DHT22;61865;50.232;18.614;2023-03-03T11:47:16;-0.10;99.90
73586;DHT22;61865;50.232;18.614;2023-03-03T11:49:46;0.00;99.90
73586;DHT22;61865;50.232;18.614;2023-03-03T11:52:19;0.00;99.90
73586;DHT22;61865;50.232;18.614;2023-03-03T11:54:47;-0.10;99.90
73586;DHT22;61865;50.232;18.614;2023-03-03T11:57:18;0.00;99.90
73586;DHT22;61865;50.232;18.614;2023-03-03T11:59:47;0.00;99.90
73586;DHT22;61865;50.232;18.614;2023-03-03T12:05:09;0.10;99.90
73586;DHT22;61865;50.232;18.614;2023-03-03T12:07:41;0.10;99.90
73586;DHT22;61865;50.232;18.614;2023-03-03T12:10:13;0.10;99.90
73586;DHT22;61865;50.232;18.614;2023-03-03T12:12:42;0.10;99.90
73586;DHT22;61865;50.232;18.614;2023-03-03T12:15:13;0.10;99.90
73586;DHT22;61865;50.232;18.614;2023-03-03T12:18:01;0.30;99.90
73586;DHT22;61865;50.232;18.614;2023-03-03T12:20:30;0.20;99.90
73586;DHT22;61865;50.232;18.614;2023-03-03T12:23:05;0.20;99.90
73586;DHT22;61865;50.232;18.614;2023-03-03T12:25:35;0.30;99.90
73586;DHT22;61865;50.232;18.614;2023-03-03T12:28:04;0.20;99.90
73586;DHT22;61865;50.232;18.614;2023-03-03T12:33:21;0.20;99.90
73586;DHT22;61865;50.232;18.614;2023-03-03T12:35:51;0.10;99.90
73586;DHT22;61865;50.232;18.614;2023-03-03T12:38:23;0.10;99.90
73586;DHT22;61865;50.232;18.614;2023-03-03T12:40:55;0.10;99.90
73586;DHT22;61865;50.232;18.614;2023-03-03T12:43:34;0.20;99.90
73586;DHT22;61865;50.232;18.614;2023-03-03T12:46:06;0.20;99.90
73586;DHT22;61865;50.232;18.614;2023-03-03T12:48:39;0.30;99.90
73586;DHT22;61865;50.232;18.614;2023-03-03T12:51:05;0.50;99.90
73586;DHT22;61865;50.232;18.614;2023-03-03T12:53:42;0.60;99.90
73586;DHT22;61865;50.232;18.614;2023-03-03T12:56:12;0.50;99.90
73586;DHT22;61865;50.232;18.614;2023-03-03T12:58:42;0.50;99.90
73586;DHT22;61865;50.232;18.614;2023-03-03T13:01:17;0.40;99.90
73586;DHT22;61865;50.232;18.614;2023-03-03T13:03:48;0.30;99.90
73586;DHT22;61865;50.232;18.614;2023-03-03T13:06:19;0.30;99.90
73586;DHT22;61865;50.232;18.614;2023-03-03T13:08:54;0.30;99.90
73586;DHT22;61865;50.232;18.614;2023-03-03T13:11:46;0.20;99.90
73586;DHT22;61865;50.232;18.614;2023-03-03T13:14:22;0.20;99.90
73586;DHT22;61865;50.232;18.614;2023-03-03T13:16:52;0.20;99.90
73586;DHT22;61865;50.232;18.614;2023-03-03T13:19:19;0.20;99.90
73586;DHT22;61865;50.232;18.614;2023-03-03T13:21:47;0.20;99.90
73586;DHT22;61865;50.232;18.614;2023-03-03T13:24:17;0.20;99.90
73586;DHT22;61865;50.232;18.614;2023-03-03T13:26:43;0.20;99.90
73586;DHT22;61865;50.232;18.614;2023-03-03T13:29:14;0.30;99.90
73586;DHT22;61865;50.232;18.614;2023-03-03T13:31:43;0.30;99.90
73586;DHT22;61865;50.232;18.614;2023-03-03T13:34:08;0.30;99.90
73586;DHT22;61865;50.232;18.614;2023-03-03T13:36:40;0.40;99.90
73586;DHT22;61865;50.232;18.614;2023-03-03T13:39:10;0.40;99.90
73586;DHT22;61865;50.232;18.614;2023-03-03T13:41:39;0.50;99.90
73586;DHT22;61865;50.232;18.614;2023-03-03T13:44:08;0.50;99.90
73586;DHT22;61865;50.232;18.614;2023-03-03T13:46:38;0.50;99.90
73586;DHT22;61865;50.232;18.614;2023-03-03T13:49:10;0.50;99.90
73586;DHT22;61865;50.232;18.614;2023-03-03T13:51:41;0.70;99.90
73586;DHT22;61865;50.232;18.614;2023-03-03T13:54:12;0.80;99.90
73586;DHT22;61865;50.232;18.614;2023-03-03T13:56:48;0.80;99.90
73586;DHT22;61865;50.232;18.614;2023-03-03T13:59:20;0.60;99.90
73586;DHT22;61865;50.232;18.614;2023-03-03T14:01:54;0.60;99.90
73586;DHT22;61865;50.232;18.614;2023-03-03T14:04:31;0.70;99.90
73586;DHT22;61865;50.232;18.614;2023-03-03T14:07:02;0.70;99.90
73586;DHT22;61865;50.232;18.614;2023-03-03T14:09:38;0.70;99.90
73586;DHT22;61865;50.232;18.614;2023-03-03T14:12:11;0.80;99.90
73586;DHT22;61865;50.232;18.614;2023-03-03T14:14:45;0.80;99.90
73586;DHT22;61865;50.232;18.614;2023-03-03T14:17:16;0.70;99.90
73586;DHT22;61865;50.232;18.614;2023-03-03T14:19:43;0.60;99.90
73586;DHT22;61865;50.232;18.614;2023-03-03T14:22:17;0.60;99.90
73586;DHT22;61865;50.232;18.614;2023-03-03T14:25:02;0.50;99.90
73586;DHT22;61865;50.232;18.614;2023-03-03T14:27:27;0.50;99.90
73586;DHT22;61865;50.232;18.614;2023-03-03T14:29:53;0.50;99.90
73586;DHT22;61865;50.232;18.614;2023-03-03T14:32:24;0.40;99.90
73586;DHT22;61865;50.232;18.614;2023-03-03T14:34:56;0.40;99.90
73586;DHT22;61865;50.232;18.614;2023-03-03T14:37:20;0.40;99.90
73586;DHT22;61865;50.232;18.614;2023-03-03T14:39:58;0.40;99.90
73586;DHT22;61865;50.232;18.614;2023-03-03T14:42:31;0.50;99.90
73586;DHT22;61865;50.232;18.614;2023-03-03T14:44:54;0.40;99.90
73586;DHT22;61865;50.232;18.614;2023-03-03T14:47:23;0.40;99.90
73586;DHT22;61865;50.232;18.614;2023-03-03T14:49:46;0.50;99.90
73586;DHT22;61865;50.232;18.614;2023-03-03T14:52:19;0.50;99.90
73586;DHT22;61865;50.232;18.614;2023-03-03T14:54:43;0.50;99.90
73586;DHT22;61865;50.232;18.614;2023-03-03T14:57:12;0.50;99.90
73586;DHT22;61865;50.232;18.614;2023-03-03T14:59:35;0.40;99.90
73586;DHT22;61865;50.232;18.614;2023-03-03T15:02:26;0.50;99.90
73586;DHT22;61865;50.232;18.614;2023-03-03T15:04:48;0.50;99.90
73586;DHT22;61865;50.232;18.614;2023-03-03T15:07:25;0.60;99.90
73586;DHT22;61865;50.232;18.614;2023-03-03T15:09:49;0.40;99.90
73586;DHT22;61865;50.232;18.614;2023-03-03T15:12:19;0.30;99.90
73586;DHT22;61865;50.232;18.614;2023-03-03T15:14:44;0.40;99.90
73586;DHT22;61865;50.232;18.614;2023-03-03T15:17:23;0.40;99.90
73586;DHT22;61865;50.232;18.614;2023-03-03T15:22:59;0.30;99.90
73586;DHT22;61865;50.232;18.614;2023-03-03T15:25:28;0.20;99.90
73586;DHT22;61865;50.232;18.614;2023-03-03T15:28:05;0.30;99.90
73586;DHT22;61865;50.232;18.614;2023-03-03T15:30:37;0.30;99.90
73586;DHT22;61865;50.232;18.614;2023-03-03T15:33:04;0.30;99.90
73586;DHT22;61865;50.232;18.614;2023-03-03T15:35:35;0.30;99.90
73586;DHT22;61865;50.232;18.614;2023-03-03T15:38:02;0.20;99.90
73586;DHT22;61865;50.232;18.614;2023-03-03T15:40:33;0.30;99.90
73586;DHT22;61865;50.232;18.614;2023-03-03T15:43:04;0.30;99.90